sensor_id;sensor_type;location;lat;lon;timestamp;P1;durP1;ratioP1;P2;durP2;ratioP2
52740;SDS011;38634;52.138;9.912;2023-08-06T00:00:09;10.70;;;2.65;;
52740;SDS011;38634;52.138;9.912;2023-08-06T00:02:54;15.77;;;3.58;;
52740;SDS011;38634;52.138;9.912;2023-08-06T00:05:41;12.80;;;2.80;;
52740;SDS011;38634;52.138;9.912;2023-08-06T00:08:29;14.43;;;3.33;;
52740;SDS011;38634;52.138;9.912;2023-08-06T00:11:13;16.98;;;3.40;;
52740;SDS011;38634;52.138;9.912;2023-08-06T00:13:58;14.63;;;3.05;;
52740;SDS011;38634;52.138;9.912;2023-08-06T00:16:43;13.65;;;3.05;;
52740;SDS011;38634;52.138;9.912;2023-08-06T00:19:29;17.83;;;3.83;;
52740;SDS011;38634;52.138;9.912;2023-08-06T00:22:13;14.80;;;3.00;;
52740;SDS011;38634;52.138;9.912;2023-08-06T00:24:58;15.13;;;3.30;;
52740;SDS011;38634;52.138;9.912;2023-08-06T00:27:43;15.02;;;3.10;;
52740;SDS011;38634;52.138;9.912;2023-08-06T00:30:27;16.08;;;3.42;;
52740;SDS011;38634;52.138;9.912;2023-08-06T00:33:12;14.68;;;3.42;;
52740;SDS011;38634;52.138;9.912;2023-08-06T00:35:59;13.82;;;3.03;;
52740;SDS011;38634;52.138;9.912;2023-08-06T00:38:44;14.55;;;3.13;;
52740;SDS011;38634;52.138;9.912;2023-08-06T00:41:28;14.35;;;3.20;;
52740;SDS011;38634;52.138;9.912;2023-08-06T00:44:13;15.70;;;3.60;;
52740;SDS011;38634;52.138;9.912;2023-08-06T00:46:58;14.50;;;3.10;;
52740;SDS011;38634;52.138;9.912;2023-08-06T00:49:42;14.80;;;3.13;;
52740;SDS011;38634;52.138;9.912;2023-08-06T00:52:27;14.77;;;2.88;;
52740;SDS011;38634;52.138;9.912;2023-08-06T00:55:12;14.85;;;3.75;;
52740;SDS011;38634;52.138;9.912;2023-08-06T00:57:56;12.25;;;2.80;;
52740;SDS011;38634;52.138;9.912;2023-08-06T01:00:41;14.93;;;3.35;;
52740;SDS011;38634;52.138;9.912;2023-08-06T01:03:26;15.18;;;2.95;;
52740;SDS011;38634;52.138;9.912;2023-08-06T01:06:10;15.02;;;3.03;;
52740;SDS011;38634;52.138;9.912;2023-08-06T01:08:58;15.88;;;3.75;;
52740;SDS011;38634;52.138;9.912;2023-08-06T01:11:54;14.00;;;2.88;;
52740;SDS011;38634;52.138;9.912;2023-08-06T01:15:02;14.88;;;3.20;;
52740;SDS011;38634;52.138;9.912;2023-08-06T01:17:59;8.63;;;2.55;;
52740;SDS011;38634;52.138;9.912;2023-08-06T01:20:44;13.23;;;3.00;;
52740;SDS011;38634;52.138;9.912;2023-08-06T01:23:28;15.25;;;3.47;;
52740;SDS011;38634;52.138;9.912;2023-08-06T01:32:15;14.18;;;3.03;;
52740;SDS011;38634;52.138;9.912;2023-08-06T01:35:00;14.82;;;3.45;;
52740;SDS011;38634;52.138;9.912;2023-08-06T01:37:44;16.08;;;3.05;;
52740;SDS011;38634;52.138;9.912;2023-08-06T01:40:30;14.15;;;3.30;;
52740;SDS011;38634;52.138;9.912;2023-08-06T01:43:16;17.38;;;3.60;;
52740;SDS011;38634;52.138;9.912;2023-08-06T01:46:01;13.40;;;2.78;;
52740;SDS011;38634;52.138;9.912;2023-08-06T01:48:45;15.18;;;3.22;;
52740;SDS011;38634;52.138;9.912;2023-08-06T01:51:30;11.88;;;2.58;;
52740;SDS011;38634;52.138;9.912;2023-08-06T01:54:14;16.38;;;3.17;;
52740;SDS011;38634;52.138;9.912;2023-08-06T01:56:59;16.65;;;3.30;;
52740;SDS011;38634;52.138;9.912;2023-08-06T01:59:44;16.20;;;3.17;;
52740;SDS011;38634;52.138;9.912;2023-08-06T02:02:28;14.73;;;3.30;;
52740;SDS011;38634;52.138;9.912;2023-08-06T08:58:06;14.73;;;2.90;;
52740;SDS011;38634;52.138;9.912;2023-08-06T09:00:50;14.93;;;3.00;;
52740;SDS011;38634;52.138;9.912;2023-08-06T09:03:36;13.73;;;2.97;;
52740;SDS011;38634;52.138;9.912;2023-08-06T09:06:21;12.98;;;2.60;;
52740;SDS011;38634;52.138;9.912;2023-08-06T09:09:09;15.70;;;2.63;;
52740;SDS011;38634;52.138;9.912;2023-08-06T09:12:00;15.02;;;2.90;;
52740;SDS011;38634;52.138;9.912;2023-08-06T09:14:48;12.30;;;2.40;;
52740;SDS011;38634;52.138;9.912;2023-08-06T09:17:33;21.08;;;4.28;;
52740;SDS011;38634;52.138;9.912;2023-08-06T09:20:17;15.25;;;2.80;;
52740;SDS011;38634;52.138;9.912;2023-08-06T09:23:08;12.65;;;2.40;;
52740;SDS011;38634;52.138;9.912;2023-08-06T09:25:54;15.07;;;2.70;;
52740;SDS011;38634;52.138;9.912;2023-08-06T09:28:41;9.98;;;2.22;;
52740;SDS011;38634;52.138;9.912;2023-08-06T09:31:49;6.78;;;1.70;;
52740;SDS011;38634;52.138;9.912;2023-08-06T09:34:34;15.18;;;2.88;;
52740;SDS011;38634;52.138;9.912;2023-08-06T09:37:19;23.27;;;6.10;;
52740;SDS011;38634;52.138;9.912;2023-08-06T09:40:03;11.77;;;2.10;;
52740;SDS011;38634;52.138;9.912;2023-08-06T09:43:14;14.98;;;3.03;;
52740;SDS011;38634;52.138;9.912;2023-08-06T09:45:58;15.48;;;3.08;;
52740;SDS011;38634;52.138;9.912;2023-08-06T09:48:46;13.63;;;3.15;;
52740;SDS011;38634;52.138;9.912;2023-08-06T09:51:33;13.90;;;3.00;;
52740;SDS011;38634;52.138;9.912;2023-08-06T09:54:18;12.70;;;2.60;;
52740;SDS011;38634;52.138;9.912;2023-08-06T09:57:03;12.87;;;3.17;;
52740;SDS011;38634;52.138;9.912;2023-08-06T09:59:47;11.60;;;2.65;;
52740;SDS011;38634;52.138;9.912;2023-08-06T10:02:32;14.45;;;3.03;;
52740;SDS011;38634;52.138;9.912;2023-08-06T10:05:18;13.45;;;2.92;;
52740;SDS011;38634;52.138;9.912;2023-08-06T10:08:02;6.50;;;1.80;;
52740;SDS011;38634;52.138;9.912;2023-08-06T10:10:50;9.60;;;2.47;;
52740;SDS011;38634;52.138;9.912;2023-08-06T10:13:35;15.13;;;3.33;;
52740;SDS011;38634;52.138;9.912;2023-08-06T10:16:23;11.07;;;2.45;;
52740;SDS011;38634;52.138;9.912;2023-08-06T10:19:11;12.50;;;2.90;;
52740;SDS011;38634;52.138;9.912;2023-08-06T10:24:58;10.50;;;2.70;;
52740;SDS011;38634;52.138;9.912;2023-08-06T10:30:33;8.95;;;2.35;;
52740;SDS011;38634;52.138;9.912;2023-08-06T10:33:19;10.88;;;2.42;;
52740;SDS011;38634;52.138;9.912;2023-08-06T10:36:05;11.77;;;2.60;;
52740;SDS011;38634;52.138;9.912;2023-08-06T10:38:53;13.48;;;2.78;;
52740;SDS011;38634;52.138;9.912;2023-08-06T10:41:42;15.05;;;3.35;;
52740;SDS011;38634;52.138;9.912;2023-08-06T10:44:30;12.75;;;2.50;;
52740;SDS011;38634;52.138;9.912;2023-08-06T10:47:27;16.95;;;4.97;;
52740;SDS011;38634;52.138;9.912;2023-08-06T10:50:15;16.75;;;3.03;;
52740;SDS011;38634;52.138;9.912;2023-08-06T10:53:04;15.30;;;2.85;;
52740;SDS011;38634;52.138;9.912;2023-08-06T10:55:52;14.05;;;2.63;;
52740;SDS011;38634;52.138;9.912;2023-08-06T10:58:36;13.55;;;2.67;;
52740;SDS011;38634;52.138;9.912;2023-08-06T11:01:23;14.25;;;2.72;;
52740;SDS011;38634;52.138;9.912;2023-08-06T11:04:08;12.43;;;2.50;;
52740;SDS011;38634;52.138;9.912;2023-08-06T11:06:59;15.38;;;2.92;;
52740;SDS011;38634;52.138;9.912;2023-08-06T11:09:44;15.05;;;3.10;;
52740;SDS011;38634;52.138;9.912;2023-08-06T11:12:28;12.27;;;2.45;;
52740;SDS011;38634;52.138;9.912;2023-08-06T11:15:20;10.35;;;2.22;;
52740;SDS011;38634;52.138;9.912;2023-08-06T11:18:08;15.32;;;2.95;;
52740;SDS011;38634;52.138;9.912;2023-08-06T11:20:53;11.75;;;2.42;;
52740;SDS011;38634;52.138;9.912;2023-08-06T11:23:39;15.13;;;2.65;;
52740;SDS011;38634;52.138;9.912;2023-08-06T11:26:24;14.55;;;2.60;;
52740;SDS011;38634;52.138;9.912;2023-08-06T11:29:29;12.80;;;2.53;;
52740;SDS011;38634;52.138;9.912;2023-08-06T11:32:14;14.00;;;2.83;;
52740;SDS011;38634;52.138;9.912;2023-08-06T11:34:59;14.35;;;3.03;;
52740;SDS011;38634;52.138;9.912;2023-08-06T11:37:53;13.05;;;2.65;;
52740;SDS011;38634;52.138;9.912;2023-08-06T11:40:38;12.90;;;2.70;;
52740;SDS011;38634;52.138;9.912;2023-08-06T11:43:22;11.50;;;2.45;;
52740;SDS011;38634;52.138;9.912;2023-08-06T11:46:07;13.13;;;2.60;;
52740;SDS011;38634;52.138;9.912;2023-08-06T11:48:55;14.50;;;3.13;;
52740;SDS011;38634;52.138;9.912;2023-08-06T11:51:41;7.22;;;1.77;;
52740;SDS011;38634;52.138;9.912;2023-08-06T11:54:30;11.25;;;2.55;;
52740;SDS011;38634;52.138;9.912;2023-08-06T11:57:20;24.67;;;5.50;;
52740;SDS011;38634;52.138;9.912;2023-08-06T12:00:05;13.77;;;2.42;;
52740;SDS011;38634;52.138;9.912;2023-08-06T12:02:55;12.10;;;2.28;;
52740;SDS011;38634;52.138;9.912;2023-08-06T12:05:40;11.13;;;2.17;;
52740;SDS011;38634;52.138;9.912;2023-08-06T12:08:28;8.80;;;1.70;;
52740;SDS011;38634;52.138;9.912;2023-08-06T12:11:13;14.45;;;2.65;;
52740;SDS011;38634;52.138;9.912;2023-08-06T12:14:00;14.68;;;2.42;;
52740;SDS011;38634;52.138;9.912;2023-08-06T12:16:44;16.58;;;2.92;;
52740;SDS011;38634;52.138;9.912;2023-08-06T12:19:29;14.18;;;2.63;;
52740;SDS011;38634;52.138;9.912;2023-08-06T12:22:14;15.02;;;2.63;;
52740;SDS011;38634;52.138;9.912;2023-08-06T12:24:59;15.32;;;2.85;;
52740;SDS011;38634;52.138;9.912;2023-08-06T12:28:00;16.38;;;2.83;;
52740;SDS011;38634;52.138;9.912;2023-08-06T12:30:45;16.50;;;2.88;;
52740;SDS011;38634;52.138;9.912;2023-08-06T12:33:32;16.17;;;2.63;;
52740;SDS011;38634;52.138;9.912;2023-08-06T12:36:17;18.85;;;3.00;;
52740;SDS011;38634;52.138;9.912;2023-08-06T12:39:02;40.38;;;8.00;;
52740;SDS011;38634;52.138;9.912;2023-08-06T12:41:46;17.48;;;2.90;;
52740;SDS011;38634;52.138;9.912;2023-08-06T12:44:31;21.42;;;4.38;;
52740;SDS011;38634;52.138;9.912;2023-08-06T12:47:17;57.47;;;10.73;;
52740;SDS011;38634;52.138;9.912;2023-08-06T12:50:02;56.67;;;9.93;;
52740;SDS011;38634;52.138;9.912;2023-08-06T12:52:49;22.90;;;5.05;;
52740;SDS011;38634;52.138;9.912;2023-08-06T12:55:34;29.92;;;5.55;;
52740;SDS011;38634;52.138;9.912;2023-08-06T12:58:18;45.53;;;8.05;;
52740;SDS011;38634;52.138;9.912;2023-08-06T13:01:03;46.30;;;7.95;;
52740;SDS011;38634;52.138;9.912;2023-08-06T13:03:48;21.60;;;4.70;;
52740;SDS011;38634;52.138;9.912;2023-08-06T13:06:32;21.48;;;4.80;;
52740;SDS011;38634;52.138;9.912;2023-08-06T13:09:20;48.67;;;9.40;;
52740;SDS011;38634;52.138;9.912;2023-08-06T13:12:04;38.70;;;7.80;;
52740;SDS011;38634;52.138;9.912;2023-08-06T13:14:49;20.08;;;4.25;;
52740;SDS011;38634;52.138;9.912;2023-08-06T13:17:37;36.67;;;7.70;;
52740;SDS011;38634;52.138;9.912;2023-08-06T13:20:22;48.33;;;8.35;;
52740;SDS011;38634;52.138;9.912;2023-08-06T13:23:06;34.47;;;6.55;;
52740;SDS011;38634;52.138;9.912;2023-08-06T13:25:51;20.35;;;4.55;;
52740;SDS011;38634;52.138;9.912;2023-08-06T13:28:36;31.88;;;6.20;;
52740;SDS011;38634;52.138;9.912;2023-08-06T13:31:21;43.97;;;7.97;;
52740;SDS011;38634;52.138;9.912;2023-08-06T13:34:06;38.95;;;7.50;;
52740;SDS011;38634;52.138;9.912;2023-08-06T13:36:50;21.98;;;5.15;;
52740;SDS011;38634;52.138;9.912;2023-08-06T13:39:35;22.65;;;5.03;;
52740;SDS011;38634;52.138;9.912;2023-08-06T13:42:19;40.47;;;7.90;;
52740;SDS011;38634;52.138;9.912;2023-08-06T13:45:05;45.17;;;8.68;;
52740;SDS011;38634;52.138;9.912;2023-08-06T13:47:50;20.67;;;4.30;;
52740;SDS011;38634;52.138;9.912;2023-08-06T13:50:35;25.27;;;4.88;;
52740;SDS011;38634;52.138;9.912;2023-08-06T13:53:21;55.42;;;10.00;;
52740;SDS011;38634;52.138;9.912;2023-08-06T13:56:06;46.40;;;8.43;;
52740;SDS011;38634;52.138;9.912;2023-08-06T13:58:53;23.10;;;5.25;;
52740;SDS011;38634;52.138;9.912;2023-08-06T14:01:44;45.55;;;7.95;;
52740;SDS011;38634;52.138;9.912;2023-08-06T14:04:28;43.85;;;8.32;;
52740;SDS011;38634;52.138;9.912;2023-08-06T14:07:13;29.42;;;7.75;;
52740;SDS011;38634;52.138;9.912;2023-08-06T14:09:58;18.75;;;3.97;;
52740;SDS011;38634;52.138;9.912;2023-08-06T14:12:42;47.38;;;8.68;;
52740;SDS011;38634;52.138;9.912;2023-08-06T14:15:27;42.20;;;8.07;;
52740;SDS011;38634;52.138;9.912;2023-08-06T14:18:12;25.60;;;5.43;;
52740;SDS011;38634;52.138;9.912;2023-08-06T14:20:58;24.65;;;5.70;;
52740;SDS011;38634;52.138;9.912;2023-08-06T14:23:42;39.22;;;7.20;;
52740;SDS011;38634;52.138;9.912;2023-08-06T14:26:36;45.42;;;7.90;;
52740;SDS011;38634;52.138;9.912;2023-08-06T14:29:21;24.55;;;5.10;;
52740;SDS011;38634;52.138;9.912;2023-08-06T14:32:09;36.03;;;6.97;;
52740;SDS011;38634;52.138;9.912;2023-08-06T14:34:53;39.15;;;6.82;;
52740;SDS011;38634;52.138;9.912;2023-08-06T14:37:42;22.00;;;4.70;;
52740;SDS011;38634;52.138;9.912;2023-08-06T14:40:29;36.58;;;6.95;;
52740;SDS011;38634;52.138;9.912;2023-08-06T14:43:17;47.10;;;7.70;;
52740;SDS011;38634;52.138;9.912;2023-08-06T14:46:02;19.90;;;4.43;;
52740;SDS011;38634;52.138;9.912;2023-08-06T14:48:47;25.33;;;5.68;;
52740;SDS011;38634;52.138;9.912;2023-08-06T14:51:31;23.27;;;6.03;;
52740;SDS011;38634;52.138;9.912;2023-08-06T14:54:22;19.35;;;4.40;;
52740;SDS011;38634;52.138;9.912;2023-08-06T14:57:07;32.35;;;6.50;;
52740;SDS011;38634;52.138;9.912;2023-08-06T14:59:53;45.97;;;8.15;;
52740;SDS011;38634;52.138;9.912;2023-08-06T15:02:38;40.38;;;7.22;;
52740;SDS011;38634;52.138;9.912;2023-08-06T15:05:24;21.15;;;4.22;;
52740;SDS011;38634;52.138;9.912;2023-08-06T15:08:09;37.83;;;7.10;;
52740;SDS011;38634;52.138;9.912;2023-08-06T15:10:53;52.03;;;8.63;;
52740;SDS011;38634;52.138;9.912;2023-08-06T15:13:38;39.90;;;7.22;;
52740;SDS011;38634;52.138;9.912;2023-08-06T15:16:23;18.30;;;4.22;;
52740;SDS011;38634;52.138;9.912;2023-08-06T15:19:07;23.35;;;4.88;;
52740;SDS011;38634;52.138;9.912;2023-08-06T15:21:52;44.22;;;7.88;;
52740;SDS011;38634;52.138;9.912;2023-08-06T15:24:37;48.08;;;8.18;;
52740;SDS011;38634;52.138;9.912;2023-08-06T15:27:25;27.92;;;7.05;;
52740;SDS011;38634;52.138;9.912;2023-08-06T15:30:10;29.30;;;5.97;;
52740;SDS011;38634;52.138;9.912;2023-08-06T15:32:55;40.22;;;7.20;;
52740;SDS011;38634;52.138;9.912;2023-08-06T15:35:39;46.15;;;8.13;;
52740;SDS011;38634;52.138;9.912;2023-08-06T15:38:24;22.80;;;5.57;;
52740;SDS011;38634;52.138;9.912;2023-08-06T15:41:09;24.17;;;5.18;;
52740;SDS011;38634;52.138;9.912;2023-08-06T15:43:53;49.22;;;8.50;;
52740;SDS011;38634;52.138;9.912;2023-08-06T15:46:38;53.67;;;9.13;;
52740;SDS011;38634;52.138;9.912;2023-08-06T15:49:23;21.17;;;5.18;;
52740;SDS011;38634;52.138;9.912;2023-08-06T15:52:08;25.67;;;5.47;;
52740;SDS011;38634;52.138;9.912;2023-08-06T15:54:52;37.30;;;6.50;;
52740;SDS011;38634;52.138;9.912;2023-08-06T15:57:37;52.90;;;8.48;;
52740;SDS011;38634;52.138;9.912;2023-08-06T16:00:22;27.10;;;5.97;;
52740;SDS011;38634;52.138;9.912;2023-08-06T16:03:06;22.10;;;4.80;;
52740;SDS011;38634;52.138;9.912;2023-08-06T16:05:51;48.10;;;7.75;;
52740;SDS011;38634;52.138;9.912;2023-08-06T16:08:36;52.22;;;9.07;;
52740;SDS011;38634;52.138;9.912;2023-08-06T16:11:21;27.23;;;5.63;;
52740;SDS011;38634;52.138;9.912;2023-08-06T16:14:06;19.98;;;4.43;;
52740;SDS011;38634;52.138;9.912;2023-08-06T16:16:50;35.03;;;6.22;;
52740;SDS011;38634;52.138;9.912;2023-08-06T16:19:35;50.08;;;8.55;;
52740;SDS011;38634;52.138;9.912;2023-08-06T16:22:19;34.13;;;6.55;;
52740;SDS011;38634;52.138;9.912;2023-08-06T16:25:04;22.90;;;5.00;;
52740;SDS011;38634;52.138;9.912;2023-08-06T16:27:51;42.70;;;7.35;;
52740;SDS011;38634;52.138;9.912;2023-08-06T16:30:36;53.38;;;9.55;;
52740;SDS011;38634;52.138;9.912;2023-08-06T16:33:27;23.35;;;4.80;;
52740;SDS011;38634;52.138;9.912;2023-08-06T16:36:12;24.80;;;4.95;;
52740;SDS011;38634;52.138;9.912;2023-08-06T16:38:57;40.58;;;7.50;;
52740;SDS011;38634;52.138;9.912;2023-08-06T16:41:41;39.20;;;7.13;;
52740;SDS011;38634;52.138;9.912;2023-08-06T16:44:29;20.23;;;3.97;;
52740;SDS011;38634;52.138;9.912;2023-08-06T16:47:14;40.65;;;8.70;;
52740;SDS011;38634;52.138;9.912;2023-08-06T16:49:59;52.38;;;8.75;;
52740;SDS011;38634;52.138;9.912;2023-08-06T16:52:44;46.30;;;8.40;;
52740;SDS011;38634;52.138;9.912;2023-08-06T16:55:32;16.30;;;4.15;;
52740;SDS011;38634;52.138;9.912;2023-08-06T16:58:17;44.40;;;7.55;;
52740;SDS011;38634;52.138;9.912;2023-08-06T17:01:01;53.92;;;9.48;;
52740;SDS011;38634;52.138;9.912;2023-08-06T17:03:49;24.70;;;4.97;;
52740;SDS011;38634;52.138;9.912;2023-08-06T17:06:35;28.35;;;5.32;;
52740;SDS011;38634;52.138;9.912;2023-08-06T17:09:20;50.95;;;9.07;;
52740;SDS011;38634;52.138;9.912;2023-08-06T17:12:05;50.33;;;8.73;;
52740;SDS011;38634;52.138;9.912;2023-08-06T17:14:49;29.58;;;6.25;;
52740;SDS011;38634;52.138;9.912;2023-08-06T17:17:34;32.28;;;5.68;;
52740;SDS011;38634;52.138;9.912;2023-08-06T17:20:19;23.38;;;3.90;;
52740;SDS011;38634;52.138;9.912;2023-08-06T17:23:04;10.90;;;3.20;;
52740;SDS011;38634;52.138;9.912;2023-08-06T17:25:48;21.58;;;4.60;;
52740;SDS011;38634;52.138;9.912;2023-08-06T17:28:33;10.95;;;2.88;;
52740;SDS011;38634;52.138;9.912;2023-08-06T17:31:17;9.88;;;2.97;;
52740;SDS011;38634;52.138;9.912;2023-08-06T17:34:02;10.43;;;3.10;;
52740;SDS011;38634;52.138;9.912;2023-08-06T17:36:47;11.32;;;3.15;;
52740;SDS011;38634;52.138;9.912;2023-08-06T17:39:32;10.63;;;3.03;;
52740;SDS011;38634;52.138;9.912;2023-08-06T17:42:16;10.70;;;3.33;;
52740;SDS011;38634;52.138;9.912;2023-08-06T17:45:01;8.90;;;2.88;;
52740;SDS011;38634;52.138;9.912;2023-08-06T17:47:46;9.63;;;2.95;;
52740;SDS011;38634;52.138;9.912;2023-08-06T17:50:30;10.40;;;2.10;;
52740;SDS011;38634;52.138;9.912;2023-08-06T17:53:15;13.25;;;3.53;;
52740;SDS011;38634;52.138;9.912;2023-08-06T17:55:59;14.20;;;3.00;;
52740;SDS011;38634;52.138;9.912;2023-08-06T17:58:44;16.92;;;3.28;;
52740;SDS011;38634;52.138;9.912;2023-08-06T18:01:29;15.48;;;3.22;;
52740;SDS011;38634;52.138;9.912;2023-08-06T18:04:13;16.58;;;3.50;;
52740;SDS011;38634;52.138;9.912;2023-08-06T18:06:58;20.70;;;3.83;;
52740;SDS011;38634;52.138;9.912;2023-08-06T18:09:42;15.18;;;2.95;;
52740;SDS011;38634;52.138;9.912;2023-08-06T18:12:27;21.63;;;3.75;;
52740;SDS011;38634;52.138;9.912;2023-08-06T18:15:13;18.95;;;3.90;;
52740;SDS011;38634;52.138;9.912;2023-08-06T18:17:58;19.27;;;3.95;;
52740;SDS011;38634;52.138;9.912;2023-08-06T18:20:42;19.80;;;3.67;;
52740;SDS011;38634;52.138;9.912;2023-08-06T18:23:27;16.88;;;3.03;;
52740;SDS011;38634;52.138;9.912;2023-08-06T18:26:12;17.10;;;3.00;;
52740;SDS011;38634;52.138;9.912;2023-08-06T18:28:56;9.80;;;2.97;;
52740;SDS011;38634;52.138;9.912;2023-08-06T18:31:41;12.98;;;3.67;;
52740;SDS011;38634;52.138;9.912;2023-08-06T18:34:25;19.25;;;3.38;;
52740;SDS011;38634;52.138;9.912;2023-08-06T18:37:10;12.30;;;3.40;;
52740;SDS011;38634;52.138;9.912;2023-08-06T18:39:55;13.50;;;3.97;;
52740;SDS011;38634;52.138;9.912;2023-08-06T18:42:45;8.75;;;2.65;;
52740;SDS011;38634;52.138;9.912;2023-08-06T18:45:30;9.35;;;2.97;;
52740;SDS011;38634;52.138;9.912;2023-08-06T18:48:23;9.15;;;2.80;;
52740;SDS011;38634;52.138;9.912;2023-08-06T18:51:08;10.07;;;2.75;;
52740;SDS011;38634;52.138;9.912;2023-08-06T18:53:53;13.70;;;2.80;;
52740;SDS011;38634;52.138;9.912;2023-08-06T18:56:38;11.60;;;2.42;;
52740;SDS011;38634;52.138;9.912;2023-08-06T18:59:22;12.60;;;2.60;;
52740;SDS011;38634;52.138;9.912;2023-08-06T19:02:07;12.80;;;2.50;;
52740;SDS011;38634;52.138;9.912;2023-08-06T19:04:53;10.98;;;2.55;;
52740;SDS011;38634;52.138;9.912;2023-08-06T19:07:38;8.05;;;2.20;;
52740;SDS011;38634;52.138;9.912;2023-08-06T19:10:22;9.93;;;2.50;;
52740;SDS011;38634;52.138;9.912;2023-08-06T19:13:13;6.68;;;2.35;;
52740;SDS011;38634;52.138;9.912;2023-08-06T19:16:02;8.18;;;2.85;;
52740;SDS011;38634;52.138;9.912;2023-08-06T19:18:50;5.90;;;2.13;;
52740;SDS011;38634;52.138;9.912;2023-08-06T19:21:37;6.43;;;2.40;;
52740;SDS011;38634;52.138;9.912;2023-08-06T19:24:22;5.75;;;2.10;;
52740;SDS011;38634;52.138;9.912;2023-08-06T19:27:08;10.85;;;2.58;;
52740;SDS011;38634;52.138;9.912;2023-08-06T19:29:52;12.65;;;2.80;;
52740;SDS011;38634;52.138;9.912;2023-08-06T19:32:37;12.73;;;2.72;;
52740;SDS011;38634;52.138;9.912;2023-08-06T19:35:22;8.85;;;2.88;;
52740;SDS011;38634;52.138;9.912;2023-08-06T19:38:13;8.38;;;2.67;;
52740;SDS011;38634;52.138;9.912;2023-08-06T19:41:03;6.65;;;2.58;;
52740;SDS011;38634;52.138;9.912;2023-08-06T19:43:49;9.25;;;2.13;;
52740;SDS011;38634;52.138;9.912;2023-08-06T19:46:34;13.52;;;2.78;;
52740;SDS011;38634;52.138;9.912;2023-08-06T19:49:19;8.20;;;1.92;;
52740;SDS011;38634;52.138;9.912;2023-08-06T19:52:03;12.23;;;2.78;;
52740;SDS011;38634;52.138;9.912;2023-08-06T19:54:48;14.02;;;3.13;;
52740;SDS011;38634;52.138;9.912;2023-08-06T19:57:33;10.90;;;2.45;;
52740;SDS011;38634;52.138;9.912;2023-08-06T20:00:18;10.05;;;2.38;;
52740;SDS011;38634;52.138;9.912;2023-08-06T20:03:02;12.43;;;3.17;;
52740;SDS011;38634;52.138;9.912;2023-08-06T20:05:49;7.18;;;2.65;;
52740;SDS011;38634;52.138;9.912;2023-08-06T20:08:34;7.07;;;2.40;;
52740;SDS011;38634;52.138;9.912;2023-08-06T20:11:22;7.07;;;2.70;;
52740;SDS011;38634;52.138;9.912;2023-08-06T20:14:07;8.00;;;2.75;;
52740;SDS011;38634;52.138;9.912;2023-08-06T20:16:52;4.30;;;1.85;;
52740;SDS011;38634;52.138;9.912;2023-08-06T20:19:36;9.13;;;3.03;;
52740;SDS011;38634;52.138;9.912;2023-08-06T20:22:21;7.63;;;2.65;;
52740;SDS011;38634;52.138;9.912;2023-08-06T20:25:05;8.88;;;3.00;;
52740;SDS011;38634;52.138;9.912;2023-08-06T20:27:50;8.80;;;2.95;;
52740;SDS011;38634;52.138;9.912;2023-08-06T20:30:35;8.13;;;3.03;;
52740;SDS011;38634;52.138;9.912;2023-08-06T20:33:19;13.20;;;3.30;;
52740;SDS011;38634;52.138;9.912;2023-08-06T20:36:04;11.02;;;2.40;;
52740;SDS011;38634;52.138;9.912;2023-08-06T20:38:49;12.98;;;2.75;;
52740;SDS011;38634;52.138;9.912;2023-08-06T20:41:33;8.90;;;2.83;;
52740;SDS011;38634;52.138;9.912;2023-08-06T20:44:18;7.78;;;2.58;;
52740;SDS011;38634;52.138;9.912;2023-08-06T20:47:03;11.48;;;2.97;;
52740;SDS011;38634;52.138;9.912;2023-08-06T20:49:48;7.38;;;2.25;;
52740;SDS011;38634;52.138;9.912;2023-08-06T20:52:33;6.55;;;2.22;;
52740;SDS011;38634;52.138;9.912;2023-08-06T20:55:18;7.68;;;2.45;;
52740;SDS011;38634;52.138;9.912;2023-08-06T20:58:02;8.57;;;2.80;;
52740;SDS011;38634;52.138;9.912;2023-08-06T21:00:47;7.93;;;3.05;;
52740;SDS011;38634;52.138;9.912;2023-08-06T21:03:32;7.18;;;3.10;;
52740;SDS011;38634;52.138;9.912;2023-08-06T21:06:17;10.05;;;3.28;;
52740;SDS011;38634;52.138;9.912;2023-08-06T21:09:01;9.32;;;3.00;;
52740;SDS011;38634;52.138;9.912;2023-08-06T21:11:46;7.22;;;2.00;;
52740;SDS011;38634;52.138;9.912;2023-08-06T21:14:31;13.27;;;2.60;;
52740;SDS011;38634;52.138;9.912;2023-08-06T21:17:15;19.40;;;5.70;;
52740;SDS011;38634;52.138;9.912;2023-08-06T21:20:00;8.38;;;2.70;;
52740;SDS011;38634;52.138;9.912;2023-08-06T21:22:45;7.78;;;2.50;;
52740;SDS011;38634;52.138;9.912;2023-08-06T21:25:29;11.40;;;3.55;;
52740;SDS011;38634;52.138;9.912;2023-08-06T21:28:14;9.13;;;3.00;;
52740;SDS011;38634;52.138;9.912;2023-08-06T21:31:00;9.68;;;2.88;;
52740;SDS011;38634;52.138;9.912;2023-08-06T21:33:46;9.95;;;2.75;;
52740;SDS011;38634;52.138;9.912;2023-08-06T21:36:32;10.23;;;2.60;;
52740;SDS011;38634;52.138;9.912;2023-08-06T21:39:17;5.20;;;1.70;;
52740;SDS011;38634;52.138;9.912;2023-08-06T21:42:04;8.73;;;2.70;;
52740;SDS011;38634;52.138;9.912;2023-08-06T21:44:52;12.70;;;2.67;;
52740;SDS011;38634;52.138;9.912;2023-08-06T21:47:37;11.85;;;2.65;;
52740;SDS011;38634;52.138;9.912;2023-08-06T21:50:21;11.40;;;2.50;;
52740;SDS011;38634;52.138;9.912;2023-08-06T21:53:06;14.10;;;2.95;;
52740;SDS011;38634;52.138;9.912;2023-08-06T21:55:55;10.40;;;2.63;;
52740;SDS011;38634;52.138;9.912;2023-08-06T21:58:42;7.97;;;2.15;;
52740;SDS011;38634;52.138;9.912;2023-08-06T22:01:30;6.32;;;1.95;;
52740;SDS011;38634;52.138;9.912;2023-08-06T22:04:14;13.35;;;2.63;;
52740;SDS011;38634;52.138;9.912;2023-08-06T22:06:59;13.48;;;3.28;;
52740;SDS011;38634;52.138;9.912;2023-08-06T22:09:44;7.05;;;2.20;;
52740;SDS011;38634;52.138;9.912;2023-08-06T22:12:29;7.57;;;2.45;;
52740;SDS011;38634;52.138;9.912;2023-08-06T22:15:14;9.27;;;3.33;;
52740;SDS011;38634;52.138;9.912;2023-08-06T22:17:58;4.05;;;1.60;;
52740;SDS011;38634;52.138;9.912;2023-08-06T22:20:45;4.20;;;1.75;;
52740;SDS011;38634;52.138;9.912;2023-08-06T22:23:33;5.38;;;1.83;;
52740;SDS011;38634;52.138;9.912;2023-08-06T22:26:18;7.05;;;2.20;;
52740;SDS011;38634;52.138;9.912;2023-08-06T22:29:03;6.00;;;2.10;;
52740;SDS011;38634;52.138;9.912;2023-08-06T22:31:48;12.88;;;2.50;;
52740;SDS011;38634;52.138;9.912;2023-08-06T22:34:33;10.88;;;2.50;;
52740;SDS011;38634;52.138;9.912;2023-08-06T22:37:17;19.35;;;4.57;;
52740;SDS011;38634;52.138;9.912;2023-08-06T22:40:02;14.48;;;3.08;;
52740;SDS011;38634;52.138;9.912;2023-08-06T22:42:48;15.13;;;3.25;;
52740;SDS011;38634;52.138;9.912;2023-08-06T22:45:32;14.77;;;3.08;;
52740;SDS011;38634;52.138;9.912;2023-08-06T22:48:17;16.95;;;3.60;;
52740;SDS011;38634;52.138;9.912;2023-08-06T22:51:01;15.80;;;3.45;;
52740;SDS011;38634;52.138;9.912;2023-08-06T22:53:46;12.25;;;2.58;;
52740;SDS011;38634;52.138;9.912;2023-08-06T22:56:31;12.73;;;2.67;;
52740;SDS011;38634;52.138;9.912;2023-08-06T22:59:17;14.88;;;3.15;;
52740;SDS011;38634;52.138;9.912;2023-08-06T23:02:01;10.85;;;2.15;;
52740;SDS011;38634;52.138;9.912;2023-08-06T23:04:46;15.13;;;3.97;;
52740;SDS011;38634;52.138;9.912;2023-08-06T23:07:31;15.65;;;3.83;;
52740;SDS011;38634;52.138;9.912;2023-08-06T23:10:15;13.40;;;2.55;;
52740;SDS011;38634;52.138;9.912;2023-08-06T23:13:00;15.65;;;3.05;;
52740;SDS011;38634;52.138;9.912;2023-08-06T23:15:45;11.60;;;2.47;;
52740;SDS011;38634;52.138;9.912;2023-08-06T23:18:29;14.15;;;2.80;;
52740;SDS011;38634;52.138;9.912;2023-08-06T23:21:14;8.02;;;2.00;;
52740;SDS011;38634;52.138;9.912;2023-08-06T23:23:59;18.63;;;3.80;;
52740;SDS011;38634;52.138;9.912;2023-08-06T23:26:43;12.88;;;2.72;;
52740;SDS011;38634;52.138;9.912;2023-08-06T23:29:28;11.18;;;2.55;;